createdAt,value
2019-03-13T00:00:50.505Z,26.53
2019-03-13T00:03:20.907Z,24.30
2019-03-13T00:05:50.929Z,26.47
2019-03-13T00:08:21.630Z,24.40
2019-03-13T00:10:52.355Z,25.90
2019-03-13T00:13:21.910Z,23.57
2019-03-13T00:15:51.606Z,24.20
2019-03-13T00:18:21.160Z,24.73
2019-03-13T00:20:50.770Z,27.40
2019-03-13T00:23:21.009Z,22.90
2019-03-13T00:25:53.714Z,22.00
2019-03-13T00:28:24.101Z,26.10
2019-03-13T00:30:53.701Z,26.77
2019-03-13T00:33:23.823Z,24.00
2019-03-13T00:35:54.625Z,25.10
2019-03-13T00:38:25.332Z,27.82
2019-03-13T00:40:56.556Z,27.00
2019-03-13T00:43:26.643Z,25.43
2019-03-13T00:45:56.797Z,25.23
2019-03-13T00:48:27.326Z,27.23
2019-03-13T00:50:57.618Z,25.80
2019-03-13T00:53:27.612Z,26.43
2019-03-13T00:55:57.958Z,20.73
2019-03-13T00:58:30.945Z,26.73
2019-03-13T01:01:17.003Z,25.27
2019-03-13T01:04:11.926Z,26.13
2019-03-13T01:06:44.823Z,29.20
2019-03-13T01:09:15.800Z,31.00
2019-03-13T01:11:46.155Z,28.80
2019-03-13T01:14:16.292Z,23.83
2019-03-13T01:16:46.190Z,27.40
2019-03-13T01:19:16.073Z,29.10
2019-03-13T01:21:45.991Z,30.80
2019-03-13T01:24:16.111Z,29.10
2019-03-13T01:26:46.117Z,29.13
2019-03-13T01:29:35.604Z,28.70
2019-03-13T01:32:33.190Z,32.77
2019-03-13T01:35:08.860Z,33.07
2019-03-13T01:37:39.474Z,32.80
2019-03-13T01:40:11.204Z,32.50
2019-03-13T01:42:41.189Z,32.00
2019-03-13T01:45:11.846Z,32.57
2019-03-13T01:47:41.859Z,33.40
2019-03-13T01:50:11.874Z,30.37
2019-03-13T01:52:42.195Z,33.83
2019-03-13T01:55:12.935Z,35.10
2019-03-13T01:57:42.830Z,30.10
2019-03-13T02:00:13.344Z,34.63
2019-03-13T02:02:42.925Z,35.70
2019-03-13T02:05:13.888Z,36.10
2019-03-13T02:07:44.456Z,35.53
2019-03-13T02:10:14.664Z,33.73
2019-03-13T02:12:45.877Z,28.73
2019-03-13T02:15:17.782Z,33.93
2019-03-13T02:17:48.191Z,31.20
2019-03-13T02:20:20.072Z,35.40
2019-03-13T02:22:50.402Z,35.13
2019-03-13T02:25:20.373Z,36.07
2019-03-13T02:27:50.983Z,33.23
2019-03-13T02:30:21.862Z,35.00
2019-03-13T02:32:51.720Z,32.10
2019-03-13T02:35:22.063Z,36.30
2019-03-13T02:37:52.354Z,33.93
2019-03-13T02:40:22.184Z,31.93
2019-03-13T02:42:51.852Z,34.80
2019-03-13T02:45:21.577Z,29.73
2019-03-13T02:47:52.310Z,32.30
2019-03-13T02:50:22.225Z,32.73
2019-03-13T02:52:54.594Z,30.33
2019-03-13T02:55:24.195Z,34.60
2019-03-13T02:57:54.434Z,31.07
2019-03-13T03:00:37.891Z,32.80
2019-03-13T03:03:12.985Z,32.70
2019-03-13T03:05:43.430Z,31.67
2019-03-13T03:08:13.350Z,31.30
2019-03-13T03:10:44.065Z,27.50
2019-03-13T03:13:13.604Z,31.33
2019-03-13T03:15:45.259Z,31.40
2019-03-13T03:18:18.420Z,30.97
2019-03-13T03:20:48.351Z,32.37
2019-03-13T03:23:18.290Z,31.77
2019-03-13T03:25:49.078Z,31.40
2019-03-13T03:28:21.250Z,30.90
2019-03-13T03:30:50.970Z,31.60
2019-03-13T03:33:21.328Z,28.70
2019-03-13T03:35:52.039Z,27.63
2019-03-13T03:38:22.191Z,29.70
2019-03-13T03:40:52.751Z,29.30
2019-03-13T03:43:38.745Z,27.83
2019-03-13T03:45:53.684Z,27.23
2019-03-13T03:48:23.367Z,28.73
2019-03-13T03:50:53.055Z,26.87
2019-03-13T03:53:23.265Z,28.27
2019-03-13T03:55:53.054Z,28.10
2019-03-13T03:58:22.642Z,25.80
2019-03-13T04:00:53.011Z,27.07
2019-03-13T04:03:23.085Z,25.07
2019-03-13T04:05:54.055Z,27.50
2019-03-13T04:08:24.984Z,23.63
2019-03-13T04:10:55.497Z,21.10
2019-03-13T04:13:25.863Z,21.40
2019-03-13T04:15:55.825Z,24.70
2019-03-13T04:18:25.683Z,23.17
2019-03-13T04:20:56.780Z,22.27
2019-03-13T04:23:26.735Z,23.80
2019-03-13T04:25:56.661Z,24.77
2019-03-13T04:28:27.169Z,24.23
2019-03-13T04:30:57.762Z,21.53
2019-03-13T04:33:28.627Z,24.20
2019-03-13T04:35:58.554Z,25.20
2019-03-13T04:38:28.524Z,20.20
2019-03-13T04:40:58.867Z,23.00
2019-03-13T04:43:29.014Z,20.37
2019-03-13T04:45:58.892Z,21.70
2019-03-13T04:48:28.763Z,21.87
2019-03-13T04:50:59.396Z,19.33
2019-03-13T04:53:29.928Z,20.03
2019-03-13T04:56:00.618Z,19.80
2019-03-13T04:58:30.624Z,19.67
2019-03-13T05:01:01.404Z,21.20
2019-03-13T05:03:31.606Z,14.17
2019-03-13T05:06:05.521Z,18.97
2019-03-13T05:08:56.957Z,18.70
2019-03-13T05:11:26.942Z,19.00
2019-03-13T05:13:56.593Z,17.97
2019-03-13T05:16:27.581Z,16.60
2019-03-13T05:18:57.654Z,13.23
2019-03-13T05:21:27.955Z,17.67
2019-03-13T05:23:58.184Z,17.57
2019-03-13T05:26:28.414Z,18.20
2019-03-13T05:28:59.059Z,16.83
2019-03-13T05:31:31.232Z,16.67
2019-03-13T05:34:01.533Z,17.90
2019-03-13T05:36:32.201Z,17.97
2019-03-13T05:39:02.787Z,16.23
2019-03-13T05:41:33.037Z,17.23
2019-03-13T05:44:03.534Z,17.50
2019-03-13T05:46:33.477Z,15.53
2019-03-13T05:49:04.036Z,17.60
2019-03-13T05:51:43.878Z,18.37
2019-03-13T05:54:14.470Z,16.33
2019-03-13T05:56:44.870Z,14.17
2019-03-13T05:59:14.803Z,16.50
2019-03-13T06:01:44.324Z,18.17
2019-03-13T06:04:14.745Z,15.93
2019-03-13T06:06:45.024Z,16.40
2019-03-13T06:09:15.312Z,16.30
2019-03-13T06:11:45.569Z,19.43
2019-03-13T06:14:16.153Z,19.60
2019-03-13T06:16:45.831Z,15.00
2019-03-13T06:19:16.104Z,17.80
2019-03-13T06:21:46.683Z,16.90
2019-03-13T06:24:17.161Z,14.10
2019-03-13T06:26:48.080Z,17.27
2019-03-13T06:29:18.695Z,14.20
2019-03-13T06:31:48.770Z,15.70
2019-03-13T06:34:20.228Z,16.73
2019-03-13T06:36:50.258Z,11.30
2019-03-13T06:39:22.688Z,16.70
2019-03-13T06:41:52.924Z,16.97
2019-03-13T06:44:22.965Z,16.70
2019-03-13T06:46:53.134Z,15.40
2019-03-13T06:49:23.503Z,16.10
2019-03-13T06:51:53.519Z,15.10
2019-03-13T06:54:23.217Z,15.20
2019-03-13T06:56:54.539Z,14.10
2019-03-13T06:59:39.175Z,15.93
2019-03-13T07:02:40.895Z,14.20
2019-03-13T07:05:20.798Z,13.37
2019-03-13T07:08:02.447Z,15.00
2019-03-13T07:10:57.827Z,13.00
2019-03-13T07:13:53.180Z,15.03
2019-03-13T07:16:47.344Z,12.97
2019-03-13T07:19:35.061Z,12.93
2019-03-13T07:22:11.433Z,12.40
2019-03-13T07:25:13.781Z,10.37
2019-03-13T07:28:05.770Z,12.40
2019-03-13T07:31:02.483Z,11.13
2019-03-13T07:33:57.894Z,9.10
2019-03-13T07:36:52.693Z,8.60
2019-03-13T07:39:29.179Z,13.30
2019-03-13T07:42:13.056Z,11.77
2019-03-13T07:45:00.423Z,13.33
2019-03-13T07:48:01.243Z,12.93
2019-03-13T07:50:50.800Z,9.73
2019-03-13T07:53:38.174Z,14.60
2019-03-13T07:56:36.378Z,10.57
2019-03-13T07:59:27.999Z,13.00
2019-03-13T08:02:23.891Z,13.10
2019-03-13T08:05:12.980Z,13.73
2019-03-13T08:08:14.453Z,13.97
2019-03-13T08:11:09.090Z,12.57
2019-03-13T08:14:07.234Z,12.50
2019-03-13T08:17:02.402Z,11.53
2019-03-13T08:20:12.585Z,10.63
2019-03-13T08:23:14.007Z,9.47
2019-03-13T08:26:11.794Z,12.87
2019-03-13T08:29:08.595Z,12.10
2019-03-13T08:31:51.723Z,13.03
2019-03-13T08:34:52.813Z,13.50
2019-03-13T08:37:28.908Z,12.93
2019-03-13T08:40:16.786Z,12.03
2019-03-13T08:42:56.738Z,13.57
2019-03-13T08:45:43.727Z,13.80
2019-03-13T08:48:40.876Z,13.77
2019-03-13T08:51:21.319Z,12.63
2019-03-13T08:54:09.115Z,12.87
2019-03-13T08:56:59.838Z,12.73
2019-03-13T08:59:41.574Z,14.83
2019-03-13T09:02:29.049Z,13.03
2019-03-13T09:05:30.312Z,11.23
2019-03-13T09:08:25.280Z,12.67
2019-03-13T09:11:12.984Z,10.27
2019-03-13T09:13:58.207Z,12.43
2019-03-13T09:17:12.777Z,12.17
2019-03-13T09:19:52.885Z,12.47
2019-03-13T09:22:41.529Z,11.23
2019-03-13T09:25:40.853Z,11.73
2019-03-13T09:28:32.662Z,12.20
2019-03-13T09:31:25.262Z,10.30
2019-03-13T09:33:59.688Z,11.10
2019-03-13T09:36:48.696Z,11.50
2019-03-13T09:39:47.430Z,10.00
2019-03-13T09:42:44.307Z,9.50
2019-03-13T09:45:29.715Z,11.80
2019-03-13T09:48:10.818Z,11.17
2019-03-13T09:51:02.443Z,12.23
2019-03-13T09:53:41.578Z,10.93
2019-03-13T09:56:22.454Z,12.57
2019-03-13T09:59:10.280Z,11.97
2019-03-13T10:01:56.757Z,9.83
2019-03-13T10:04:53.410Z,10.83
2019-03-13T10:07:38.321Z,13.13
2019-03-13T10:10:27.997Z,10.27
2019-03-13T10:13:38.126Z,9.67
2019-03-13T10:16:22.128Z,9.67
2019-03-13T10:19:12.180Z,8.83
2019-03-13T10:22:17.209Z,8.03
2019-03-13T10:25:13.835Z,11.93
2019-03-13T10:28:02.006Z,11.00
2019-03-13T10:30:53.171Z,11.00
2019-03-13T10:33:41.022Z,10.93
2019-03-13T10:36:39.078Z,11.40
2019-03-13T10:39:45.949Z,12.17
2019-03-13T10:42:26.372Z,10.80
2019-03-13T10:45:18.435Z,13.73
2019-03-13T10:48:01.022Z,13.20
2019-03-13T10:50:59.209Z,14.23
2019-03-13T10:53:40.626Z,10.73
2019-03-13T10:56:29.627Z,14.50
2019-03-13T10:59:23.240Z,12.30
2019-03-13T11:02:22.445Z,14.80
2019-03-13T11:05:15.472Z,14.40
2019-03-13T11:08:02.764Z,13.57
2019-03-13T11:10:42.549Z,12.80
2019-03-13T11:13:24.071Z,13.77
2019-03-13T11:16:11.541Z,12.13
2019-03-13T11:19:18.306Z,13.43
2019-03-13T11:21:58.118Z,14.00
2019-03-13T11:24:49.136Z,13.27
2019-03-13T11:27:40.444Z,15.97
2019-03-13T11:30:43.139Z,12.03
2019-03-13T11:33:30.815Z,13.57
2019-03-13T11:36:18.138Z,13.87
2019-03-13T11:39:11.043Z,14.07
2019-03-13T11:41:58.640Z,14.00
2019-03-13T11:44:46.189Z,14.63
2019-03-13T11:47:47.647Z,15.20
2019-03-13T11:50:49.363Z,15.10
2019-03-13T11:53:40.054Z,15.07
2019-03-13T11:56:39.150Z,16.67
2019-03-13T11:59:35.552Z,16.70
2019-03-13T12:02:27.424Z,15.60
2019-03-13T12:05:27.524Z,15.30
2019-03-13T12:08:17.887Z,16.00
2019-03-13T12:11:12.773Z,15.37
2019-03-13T12:14:05.438Z,16.37
2019-03-13T12:16:56.343Z,17.10
2019-03-13T12:19:54.639Z,17.13
2019-03-13T12:22:53.054Z,16.37
2019-03-13T12:25:43.979Z,16.10
2019-03-13T12:28:41.656Z,15.17
2019-03-13T12:31:30.375Z,16.83
2019-03-13T12:34:28.519Z,14.53
2019-03-13T12:37:20.392Z,14.77
2019-03-13T12:40:20.433Z,13.93
2019-03-13T12:43:15.027Z,15.40
2019-03-13T12:45:58.996Z,14.73
2019-03-13T12:48:45.919Z,13.30
2019-03-13T12:51:35.393Z,14.37
2019-03-13T12:54:26.373Z,16.20
2019-03-13T12:57:14.382Z,13.93
2019-03-13T12:59:53.468Z,14.20
2019-03-13T13:02:49.362Z,15.70
2019-03-13T13:05:39.012Z,13.63
2019-03-13T13:08:36.395Z,14.93
2019-03-13T13:11:37.403Z,13.63
2019-03-13T13:14:26.404Z,14.63
2019-03-13T13:17:24.198Z,14.33
2019-03-13T13:19:54.188Z,13.17
2019-03-13T13:22:24.435Z,13.23
2019-03-13T13:24:55.359Z,13.30
2019-03-13T13:27:25.333Z,13.27
2019-03-13T13:29:55.664Z,14.57
2019-03-13T13:32:27.015Z,14.00
2019-03-13T13:34:56.775Z,13.07
2019-03-13T13:37:33.235Z,12.87
2019-03-13T13:40:08.601Z,10.83
2019-03-13T13:42:38.282Z,10.63
2019-03-13T13:45:08.805Z,12.67
2019-03-13T13:47:39.668Z,12.00
2019-03-13T13:50:09.385Z,10.20
2019-03-13T13:52:40.358Z,11.80
2019-03-13T13:55:09.989Z,11.47
2019-03-13T13:57:44.086Z,12.17
2019-03-13T14:00:15.500Z,10.60
2019-03-13T14:02:46.541Z,7.50
2019-03-13T14:05:16.857Z,7.30
2019-03-13T14:07:47.365Z,9.10
2019-03-13T14:10:19.687Z,10.60
2019-03-13T14:12:49.817Z,6.93
2019-03-13T14:15:21.319Z,8.33
2019-03-13T14:17:55.027Z,6.80
2019-03-13T14:20:24.733Z,6.70
2019-03-13T14:22:55.280Z,7.30
2019-03-13T14:25:27.158Z,7.00
2019-03-13T14:28:00.768Z,8.10
2019-03-13T14:30:30.524Z,7.50
2019-03-13T14:33:00.718Z,6.37
2019-03-13T14:35:30.827Z,6.90
2019-03-13T14:38:01.247Z,7.93
2019-03-13T14:40:32.845Z,7.93
2019-03-13T14:43:03.016Z,8.07
2019-03-13T14:45:33.557Z,7.90
2019-03-13T14:48:03.478Z,7.70
2019-03-13T14:50:36.468Z,8.60
2019-03-13T14:53:08.798Z,7.93
2019-03-13T14:55:40.820Z,7.93
2019-03-13T14:58:11.163Z,7.57
2019-03-13T15:00:43.671Z,9.10
2019-03-13T15:03:18.869Z,8.27
2019-03-13T15:05:52.567Z,8.60
2019-03-13T15:08:26.402Z,8.43
2019-03-13T15:10:56.861Z,7.93
2019-03-13T15:13:31.303Z,8.17
2019-03-13T15:16:01.070Z,8.03
2019-03-13T15:18:31.874Z,9.50
2019-03-13T15:21:02.692Z,8.43
2019-03-13T15:23:36.282Z,8.33
2019-03-13T15:26:10.690Z,9.43
2019-03-13T15:28:42.606Z,8.20
2019-03-13T15:31:12.795Z,8.70
2019-03-13T15:34:02.226Z,8.87
2019-03-13T15:36:33.791Z,9.77
2019-03-13T15:39:23.027Z,9.00
2019-03-13T15:41:55.392Z,8.90
2019-03-13T15:44:29.587Z,9.57
2019-03-13T15:47:01.855Z,9.83
2019-03-13T15:49:32.703Z,10.37
2019-03-13T15:52:08.751Z,11.00
2019-03-13T15:54:38.770Z,11.20
2019-03-13T15:57:08.674Z,10.73
2019-03-13T15:59:38.951Z,10.60
2019-03-13T16:02:09.013Z,10.80
2019-03-13T16:04:39.616Z,11.40
2019-03-13T16:07:10.136Z,11.40
2019-03-13T16:09:39.945Z,12.30
2019-03-13T16:12:10.653Z,11.03
2019-03-13T16:14:40.584Z,11.67
2019-03-13T16:17:12.106Z,12.00
2019-03-13T16:19:42.421Z,11.17
2019-03-13T16:22:15.784Z,12.20
2019-03-13T16:24:47.992Z,15.47
2019-03-13T16:27:20.464Z,11.83
2019-03-13T16:29:51.479Z,12.63
2019-03-13T16:32:22.406Z,12.80
2019-03-13T16:34:53.831Z,12.00
2019-03-13T16:37:24.018Z,12.40
2019-03-13T16:39:55.395Z,13.23
2019-03-13T16:42:27.136Z,13.87
2019-03-13T16:44:56.827Z,13.47
2019-03-13T16:47:27.242Z,13.87
2019-03-13T16:50:00.511Z,13.70
2019-03-13T16:52:30.511Z,12.67
2019-03-13T16:55:01.131Z,14.10
2019-03-13T16:57:33.185Z,14.30
2019-03-13T17:00:03.681Z,15.90
2019-03-13T17:02:41.191Z,15.33
2019-03-13T17:05:12.474Z,14.23
2019-03-13T17:07:43.585Z,17.00
2019-03-13T17:10:17.840Z,14.70
2019-03-13T17:12:51.827Z,15.67
2019-03-13T17:15:23.926Z,15.60
2019-03-13T17:17:56.161Z,16.50
2019-03-13T17:20:28.831Z,16.23
2019-03-13T17:22:59.517Z,17.63
2019-03-13T17:25:32.923Z,18.57
2019-03-13T17:28:04.553Z,18.20
2019-03-13T17:30:34.359Z,19.57
2019-03-13T17:33:04.641Z,20.60
2019-03-13T17:35:35.058Z,19.13
2019-03-13T17:38:07.878Z,20.80
2019-03-13T17:40:38.595Z,20.47
2019-03-13T17:43:09.487Z,21.23
2019-03-13T17:45:39.797Z,21.47
2019-03-13T17:48:09.365Z,20.70
2019-03-13T17:50:39.997Z,23.60
2019-03-13T17:53:10.452Z,23.80
2019-03-13T17:55:40.931Z,23.87
2019-03-13T17:58:11.156Z,25.30
2019-03-13T18:00:49.693Z,22.73
2019-03-13T18:03:20.435Z,23.20
2019-03-13T18:05:50.083Z,23.70
2019-03-13T18:08:20.695Z,22.47
2019-03-13T18:10:50.604Z,22.90
2019-03-13T18:13:20.565Z,21.90
2019-03-13T18:15:50.615Z,22.97
2019-03-13T18:18:20.309Z,23.03
2019-03-13T18:20:51.426Z,22.77
2019-03-13T18:23:26.903Z,24.30
2019-03-13T18:25:59.402Z,24.60
2019-03-13T18:28:37.950Z,24.10
2019-03-13T18:31:11.896Z,23.03
2019-03-13T18:33:42.219Z,24.70
2019-03-13T18:36:14.192Z,23.17
2019-03-13T18:38:44.623Z,24.07
2019-03-13T18:41:14.206Z,24.40
2019-03-13T18:43:44.474Z,25.43
2019-03-13T18:46:15.419Z,24.17
2019-03-13T18:48:50.156Z,25.40
2019-03-13T18:51:20.620Z,26.43
2019-03-13T18:53:51.030Z,25.47
2019-03-13T18:56:20.740Z,26.10
2019-03-13T18:58:50.454Z,26.20
2019-03-13T19:01:20.417Z,26.80
2019-03-13T19:03:51.360Z,28.03
2019-03-13T19:06:21.667Z,27.20
2019-03-13T19:08:52.591Z,29.27
2019-03-13T19:11:23.306Z,29.30
2019-03-13T19:13:58.081Z,28.00
2019-03-13T19:16:26.881Z,29.97
2019-03-13T19:18:56.796Z,30.40
2019-03-13T19:21:26.816Z,31.63
2019-03-13T19:23:56.479Z,27.87
2019-03-13T19:26:26.399Z,28.63
2019-03-13T19:28:57.103Z,27.80
2019-03-13T19:31:27.123Z,30.10
2019-03-13T19:33:57.514Z,30.03
2019-03-13T19:36:27.878Z,29.23
2019-03-13T19:38:58.275Z,29.70
2019-03-13T19:41:28.501Z,29.57
2019-03-13T19:43:58.874Z,31.00
2019-03-13T19:46:31.955Z,29.47
2019-03-13T19:49:00.431Z,26.77
2019-03-13T19:51:30.751Z,29.50
2019-03-13T19:54:00.610Z,28.70
2019-03-13T19:56:30.619Z,29.30
2019-03-13T19:59:02.813Z,31.27
2019-03-13T20:01:32.663Z,28.00
2019-03-13T20:04:02.345Z,31.60
2019-03-13T20:06:41.737Z,31.00
2019-03-13T20:09:05.135Z,31.70
2019-03-13T20:11:35.044Z,31.47
2019-03-13T20:14:07.559Z,32.27
2019-03-13T20:16:37.267Z,31.43
2019-03-13T20:19:07.615Z,28.30
2019-03-13T20:21:38.040Z,30.60
2019-03-13T20:24:08.688Z,27.30
2019-03-13T20:26:38.692Z,30.07
2019-03-13T20:29:08.968Z,31.93
2019-03-13T20:31:40.784Z,25.20
2019-03-13T20:34:11.135Z,28.23
2019-03-13T20:36:42.520Z,28.10
2019-03-13T20:39:12.556Z,28.53
2019-03-13T20:41:44.867Z,29.73
2019-03-13T20:44:15.144Z,30.53
2019-03-13T20:46:45.576Z,29.60
2019-03-13T20:49:18.278Z,27.20
2019-03-13T20:51:48.313Z,27.60
2019-03-13T20:54:18.436Z,29.33
2019-03-13T20:56:48.354Z,29.50
2019-03-13T20:59:19.135Z,30.47
2019-03-13T21:01:49.150Z,25.87
2019-03-13T21:04:19.100Z,29.10
2019-03-13T21:06:48.706Z,29.67
2019-03-13T21:09:19.411Z,31.37
2019-03-13T21:11:49.453Z,32.17
2019-03-13T21:14:21.912Z,30.90
2019-03-13T21:16:51.551Z,32.40
2019-03-13T21:19:21.483Z,30.17
2019-03-13T21:21:52.228Z,26.77
2019-03-13T21:24:21.871Z,31.00
2019-03-13T21:26:52.067Z,32.10
2019-03-13T21:29:22.312Z,33.63
2019-03-13T21:31:52.852Z,30.60
2019-03-13T21:34:23.160Z,32.00
2019-03-13T21:36:52.955Z,29.60
2019-03-13T21:39:27.582Z,32.07
2019-03-13T21:41:57.536Z,32.50
2019-03-13T21:44:27.092Z,34.63
2019-03-13T21:46:56.998Z,32.33
2019-03-13T21:49:27.835Z,28.90
2019-03-13T21:51:59.222Z,34.60
2019-03-13T21:54:29.136Z,33.03
2019-03-13T21:56:59.468Z,33.47
2019-03-13T21:59:29.238Z,31.97
2019-03-13T22:01:58.680Z,33.33
2019-03-13T22:04:28.987Z,31.80
2019-03-13T22:07:03.380Z,29.67
2019-03-13T22:09:33.050Z,32.40
2019-03-13T22:12:03.968Z,29.37
2019-03-13T22:14:33.928Z,34.13
2019-03-13T22:17:04.492Z,35.37
2019-03-13T22:19:34.674Z,33.80
2019-03-13T22:22:05.171Z,36.80
2019-03-13T22:24:34.757Z,29.33
2019-03-13T22:27:04.836Z,35.80
2019-03-13T22:29:34.707Z,34.93
2019-03-13T22:32:05.034Z,37.20
2019-03-13T22:34:36.634Z,37.70
2019-03-13T22:37:06.908Z,34.60
2019-03-13T22:39:37.128Z,37.40
2019-03-13T22:42:07.676Z,29.87
2019-03-13T22:44:38.698Z,35.67
2019-03-13T22:47:09.334Z,36.87
2019-03-13T22:49:39.763Z,34.60
2019-03-13T22:52:09.671Z,35.00
2019-03-13T22:54:40.987Z,34.07
2019-03-13T22:57:11.394Z,37.10
2019-03-13T22:59:41.284Z,35.10
2019-03-13T23:02:11.654Z,36.00
2019-03-13T23:04:42.620Z,33.10
2019-03-13T23:07:13.435Z,28.80
2019-03-13T23:09:43.409Z,35.50
2019-03-13T23:12:14.280Z,33.70
2019-03-13T23:14:44.573Z,33.30
2019-03-13T23:17:15.564Z,30.63
2019-03-13T23:19:45.397Z,34.60
2019-03-13T23:22:15.371Z,37.33
2019-03-13T23:24:45.944Z,34.00
2019-03-13T23:27:16.219Z,31.47
2019-03-13T23:29:46.327Z,34.30
2019-03-13T23:32:17.139Z,34.00
2019-03-13T23:34:47.171Z,32.03
2019-03-13T23:37:17.252Z,29.33
2019-03-13T23:39:47.271Z,24.53
2019-03-13T23:42:17.266Z,33.80
2019-03-13T23:44:47.431Z,33.50
2019-03-13T23:47:17.911Z,33.60
2019-03-13T23:49:47.622Z,33.57
2019-03-13T23:52:18.383Z,31.10
2019-03-13T23:54:49.053Z,30.90
2019-03-13T23:57:19.079Z,31.20
2019-03-13T23:59:49.271Z,32.23
